Time;durP1;ratioP1;P1;durP2;ratioP2;P2;SDS_P1;SDS_P2;PMS_P1;PMS_P2;Temp;Humidity;BMP_temperature;BMP_pressure;BME280_temperature;BME280_humidity;BME280_pressure;Samples;Min_cycle;Max_cycle;Signal;HPM_P1;HPM_P2
2023/11/17 00:00:52;;;;;;;25.15;14.23;;;4.50;99.90;;;;;;5070872;28;20019;-91
2023/11/17 00:03:18;;;;;;;23.75;14.52;;;4.40;99.90;;;;;;5085876;28;20044;-91
2023/11/17 00:05:43;;;;;;;24.15;15.25;;;4.40;99.90;;;;;;5080513;28;20024;-91
2023/11/17 00:08:09;;;;;;;23.75;13.88;;;4.40;99.90;;;;;;5072801;28;20115;-91
2023/11/17 00:10:34;;;;;;;26.67;15.55;;;4.40;99.90;;;;;;5073449;28;20024;-92
2023/11/17 00:13:00;;;;;;;25.55;15.32;;;4.50;99.90;;;;;;5068218;28;20039;-91
2023/11/17 00:15:28;;;;;;;27.80;15.45;;;4.50;99.90;;;;;;5064202;28;20108;-91
2023/11/17 00:17:53;;;;;;;26.35;14.13;;;4.40;99.90;;;;;;5075014;28;20028;-90
2023/11/17 00:20:22;;;;;;;22.65;13.80;;;4.40;99.90;;;;;;5075215;28;20028;-91
2023/11/17 00:22:48;;;;;;;26.25;16.00;;;4.40;99.90;;;;;;5080306;28;20107;-91
2023/11/17 00:25:14;;;;;;;23.08;15.07;;;4.40;99.90;;;;;;5064956;28;20112;-91
2023/11/17 00:27:40;;;;;;;25.33;15.50;;;4.40;99.90;;;;;;5074154;28;20036;-91
2023/11/17 00:30:07;;;;;;;26.02;15.15;;;4.40;99.90;;;;;;5091917;28;20027;-90
2023/11/17 00:32:33;;;;;;;23.40;14.05;;;4.40;99.90;;;;;;5073942;28;20114;-91
2023/11/17 00:34:59;;;;;;;20.00;13.60;;;4.30;99.90;;;;;;5072324;28;20056;-91
2023/11/17 00:37:26;;;;;;;26.65;15.10;;;4.30;99.90;;;;;;5074246;28;20043;-91
2023/11/17 00:39:54;;;;;;;25.15;14.27;;;4.30;99.90;;;;;;5081185;28;20023;-90
2023/11/17 00:42:20;;;;;;;21.92;14.68;;;4.30;99.90;;;;;;5073962;28;20035;-91
2023/11/17 00:44:46;;;;;;;24.80;15.45;;;4.30;99.90;;;;;;5073741;28;20024;-90
2023/11/17 00:47:12;;;;;;;27.05;15.38;;;4.30;99.90;;;;;;5072425;28;20036;-90
2023/11/17 00:49:39;;;;;;;20.30;13.10;;;4.20;99.90;;;;;;5066655;28;20057;-92
2023/11/17 00:52:05;;;;;;;21.70;13.23;;;4.30;99.90;;;;;;5072557;28;20434;-91
2023/11/17 00:54:36;;;;;;;20.38;13.63;;;4.20;99.90;;;;;;5072442;28;20468;-91
2023/11/17 00:57:03;;;;;;;17.17;12.63;;;4.20;99.90;;;;;;5074364;28;20039;-90
2023/11/17 00:59:30;;;;;;;22.38;13.70;;;4.10;99.90;;;;;;5074027;28;20024;-92
2023/11/17 01:01:55;;;;;;;20.65;12.80;;;4.10;99.90;;;;;;5075462;28;20049;-91
2023/11/17 01:04:21;;;;;;;21.85;12.77;;;4.10;99.90;;;;;;5091130;28;20148;-91
2023/11/17 01:06:53;;;;;;;20.88;11.63;;;4.10;99.90;;;;;;5067314;28;20112;-90
2023/11/17 01:09:20;;;;;;;19.17;11.65;;;4.10;99.90;;;;;;5075408;28;20040;-91
2023/11/17 01:11:46;;;;;;;21.67;12.40;;;4.10;99.90;;;;;;5091076;28;20074;-92
2023/11/17 01:14:11;;;;;;;21.10;12.98;;;4.10;99.90;;;;;;5077626;28;20364;-91
2023/11/17 01:16:38;;;;;;;20.42;12.13;;;4.10;99.90;;;;;;5078108;28;20028;-91
2023/11/17 01:19:04;;;;;;;22.05;14.23;;;4.20;99.90;;;;;;5078280;28;20032;-90
2023/11/17 01:21:30;;;;;;;21.00;13.95;;;4.10;99.90;;;;;;5076501;28;20028;-91
2023/11/17 01:23:56;;;;;;;25.90;14.75;;;4.10;99.90;;;;;;5071584;28;20422;-92
2023/11/17 01:26:22;;;;;;;19.33;13.55;;;4.10;99.90;;;;;;5073940;28;20042;-90
2023/11/17 01:28:47;;;;;;;17.85;12.32;;;4.10;99.90;;;;;;5077846;28;20032;-91
2023/11/17 01:31:13;;;;;;;20.00;12.73;;;4.10;99.90;;;;;;5061541;28;20025;-91
2023/11/17 01:33:38;;;;;;;21.10;13.05;;;4.20;99.90;;;;;;5073628;28;20118;-91
2023/11/17 01:36:05;;;;;;;22.73;13.15;;;4.10;99.90;;;;;;5076853;28;20019;-91
2023/11/17 01:38:31;;;;;;;20.25;12.65;;;4.20;99.90;;;;;;5077516;28;20068;-91
2023/11/17 01:40:58;;;;;;;23.33;15.48;;;4.20;99.90;;;;;;5075664;28;20494;-92
2023/11/17 01:43:24;;;;;;;22.35;14.18;;;4.20;99.90;;;;;;5076689;28;20027;-92
2023/11/17 01:45:50;;;;;;;26.55;15.30;;;4.20;99.90;;;;;;5069761;28;20054;-91
2023/11/17 01:48:16;;;;;;;22.73;14.40;;;4.20;99.90;;;;;;5074207;28;20040;-91
2023/11/17 01:50:42;;;;;;;22.05;15.15;;;4.20;99.90;;;;;;5077112;28;20059;-92
2023/11/17 01:53:08;;;;;;;22.73;15.20;;;4.20;99.90;;;;;;5074569;28;20028;-91
2023/11/17 01:55:34;;;;;;;25.40;16.67;;;4.20;99.90;;;;;;5073550;28;20396;-91
2023/11/17 01:58:01;;;;;;;25.13;15.00;;;4.20;99.90;;;;;;5077216;28;20036;-90
2023/11/17 02:00:27;;;;;;;26.45;16.13;;;4.20;99.90;;;;;;5076589;28;20487;-90
2023/11/17 02:02:54;;;;;;;23.40;15.10;;;4.20;99.90;;;;;;5076981;28;20044;-91
2023/11/17 02:05:22;;;;;;;26.55;15.10;;;4.30;99.90;;;;;;5068199;28;20020;-91
2023/11/17 02:08:11;;;;;;;23.88;14.23;;;4.30;99.90;;;;;;5088215;28;20047;-91
2023/11/17 02:10:59;;;;;;;15.07;10.68;;;4.30;99.90;;;;;;5089530;28;20112;-91
2023/11/17 02:13:40;;;;;;;15.63;10.48;;;4.30;99.90;;;;;;5075353;28;20028;-91
2023/11/17 02:16:11;;;;;;;25.23;12.77;;;4.30;99.90;;;;;;5093121;28;20031;-91
2023/11/17 02:18:40;;;;;;;24.50;13.45;;;4.30;99.90;;;;;;5094920;28;20099;-91
2023/11/17 02:21:07;;;;;;;20.05;12.85;;;4.30;99.90;;;;;;5093551;28;20110;-92
2023/11/17 02:23:34;;;;;;;20.23;13.63;;;4.30;99.90;;;;;;5093976;28;20066;-91
2023/11/17 02:25:59;;;;;;;20.83;13.27;;;4.30;99.90;;;;;;5083321;28;20118;-91
2023/11/17 02:28:42;;;;;;;23.55;13.30;;;4.20;99.90;;;;;;5076142;28;20111;-92
2023/11/17 02:31:29;;;;;;;24.67;12.88;;;4.30;99.90;;;;;;5083429;28;20032;-91
2023/11/17 02:33:57;;;;;;;21.83;13.65;;;4.30;99.90;;;;;;5087802;28;20038;-91
2023/11/17 02:36:26;;;;;;;23.88;14.65;;;4.20;99.90;;;;;;5076087;28;20118;-91
2023/11/17 02:39:13;;;;;;;25.10;15.95;;;4.30;99.90;;;;;;5088700;28;20484;-91
2023/11/17 02:41:47;;;;;;;26.60;14.77;;;4.30;99.90;;;;;;5068460;28;20048;-92
2023/11/17 02:44:15;;;;;;;24.85;14.68;;;4.20;99.90;;;;;;5085033;28;20425;-91
2023/11/17 02:46:58;;;;;;;31.27;16.00;;;4.20;99.90;;;;;;5095394;28;20028;-92
2023/11/17 02:49:29;;;;;;;;;;;4.20;99.90;;;;;;5074740;28;20169;-91
2023/11/17 02:52:02;;;;;;;84.93;14.35;;;4.20;99.90;;;;;;5076206;28;19908;-91
2023/11/17 02:54:30;;;;;;;63.80;13.93;;;4.20;99.90;;;;;;5085701;28;20028;-91
2023/11/17 02:56:56;;;;;;;55.58;12.93;;;4.10;99.90;;;;;;5071509;28;20032;-90
2023/11/17 02:59:23;;;;;;;50.08;13.95;;;4.20;99.90;;;;;;5072841;28;20043;-91
2023/11/17 03:01:52;;;;;;;36.45;11.27;;;4.10;99.90;;;;;;5067137;28;20051;-91
2023/11/17 03:04:18;;;;;;;20.33;11.15;;;4.10;99.90;;;;;;5083619;28;20173;-91
2023/11/17 03:06:45;;;;;;;16.88;10.95;;;4.10;99.90;;;;;;5064713;28;20476;-91
2023/11/17 03:09:15;;;;;;;26.50;13.75;;;4.10;99.90;;;;;;5090391;28;20032;-90
2023/11/17 03:11:42;;;;;;;20.67;13.18;;;4.20;99.90;;;;;;5071800;28;20476;-91
2023/11/17 03:14:09;;;;;;;48.28;17.73;;;4.20;99.90;;;;;;5091987;28;20027;-90
2023/11/17 03:16:37;;;;;;;28.27;15.70;;;4.20;99.90;;;;;;5075595;28;20023;-90
2023/11/17 03:19:10;;;;;;;25.17;15.05;;;4.20;99.90;;;;;;5074898;28;20357;-91
2023/11/17 03:21:42;;;;;;;24.60;16.23;;;4.20;99.90;;;;;;5091099;28;20044;-91
2023/11/17 03:24:14;;;;;;;24.77;14.32;;;4.20;99.90;;;;;;5093831;28;20020;-91
2023/11/17 03:26:47;;;;;;;23.48;14.05;;;4.20;99.90;;;;;;5076934;28;20137;-92
2023/11/17 03:29:15;;;;;;;32.60;14.23;;;4.20;99.90;;;;;;5072637;28;20103;-90
2023/11/17 03:31:48;;;;;;;24.90;14.18;;;4.20;99.90;;;;;;5092830;28;20028;-91
2023/11/17 03:34:14;;;;;;;28.83;16.73;;;4.30;99.90;;;;;;5066809;28;20070;-91
2023/11/17 03:36:40;;;;;;;26.13;15.40;;;4.20;99.90;;;;;;5075567;28;20077;-91
2023/11/17 03:39:12;;;;;;;26.88;15.75;;;4.20;99.90;;;;;;5092540;28;20028;-91
2023/11/17 03:41:41;;;;;;;30.15;17.67;;;4.30;99.90;;;;;;5066104;28;20663;-91
2023/11/17 03:44:07;;;;;;;26.88;16.63;;;4.20;99.90;;;;;;5086732;28;20162;-91
2023/11/17 03:46:33;;;;;;;22.40;14.80;;;4.30;99.90;;;;;;5072844;28;20123;-91
2023/11/17 03:48:59;;;;;;;24.15;16.10;;;4.30;99.90;;;;;;5084526;28;20087;-91
2023/11/17 03:51:25;;;;;;;26.95;15.73;;;4.30;99.90;;;;;;5086453;28;20131;-90
2023/11/17 03:53:51;;;;;;;24.38;16.38;;;4.30;99.90;;;;;;5084167;28;20470;-90
2023/11/17 03:56:20;;;;;;;27.33;16.20;;;4.30;99.90;;;;;;5081613;28;20017;-91
2023/11/17 03:58:45;;;;;;;29.05;15.88;;;4.30;99.90;;;;;;5068741;28;20048;-91
2023/11/17 04:01:11;;;;;;;32.70;17.25;;;4.30;99.90;;;;;;5085691;28;20070;-91
2023/11/17 04:03:36;;;;;;;28.10;16.67;;;4.30;99.90;;;;;;5068686;28;20031;-91
2023/11/17 04:06:03;;;;;;;28.27;16.35;;;4.30;99.90;;;;;;5074580;28;20062;-91
2023/11/17 04:08:28;;;;;;;35.13;17.35;;;4.30;99.90;;;;;;5073606;28;20055;-91
2023/11/17 04:10:55;;;;;;;32.53;17.67;;;4.30;99.90;;;;;;5089766;28;20032;-92
2023/11/17 04:13:23;;;;;;;32.33;17.92;;;4.30;99.90;;;;;;5080537;28;20025;-92
2023/11/17 04:15:48;;;;;;;29.45;17.80;;;4.30;99.90;;;;;;5074655;28;20514;-92
2023/11/17 04:18:14;;;;;;;30.48;17.70;;;4.30;99.90;;;;;;5072061;28;20028;-91
2023/11/17 04:20:40;;;;;;;28.48;16.75;;;4.30;99.90;;;;;;5089289;28;20036;-92
2023/11/17 04:23:06;;;;;;;28.15;16.92;;;4.30;99.90;;;;;;5073786;28;20028;-91
2023/11/17 04:25:32;;;;;;;32.35;18.90;;;4.30;99.90;;;;;;5063348;28;20050;-92
2023/11/17 04:27:58;;;;;;;28.98;16.95;;;4.30;99.90;;;;;;5074614;28;20491;-91
2023/11/17 04:30:23;;;;;;;28.02;15.43;;;4.30;99.90;;;;;;5068429;28;20030;-90
2023/11/17 04:32:49;;;;;;;24.92;15.73;;;4.30;99.90;;;;;;5073004;28;20063;-91
2023/11/17 04:35:14;;;;;;;25.30;16.10;;;4.40;99.90;;;;;;5073631;28;20016;-91
2023/11/17 04:37:40;;;;;;;28.05;17.08;;;4.30;99.90;;;;;;5084835;28;20039;-90
2023/11/17 04:40:10;;;;;;;60.85;18.08;;;4.30;99.90;;;;;;5063275;28;20048;-90
2023/11/17 04:42:38;;;;;;;30.08;17.08;;;4.40;99.90;;;;;;5073557;28;20021;-91
2023/11/17 04:45:06;;;;;;;29.50;16.98;;;4.40;99.90;;;;;;5085270;28;20019;-91
2023/11/17 04:47:32;;;;;;;29.55;17.10;;;4.40;99.90;;;;;;5058452;28;20040;-90
2023/11/17 04:49:57;;;;;;;38.55;19.95;;;4.40;99.90;;;;;;5073640;28;20661;-91
2023/11/17 04:52:24;;;;;;;28.88;17.90;;;4.40;99.90;;;;;;5094830;28;20487;-90
2023/11/17 04:54:50;;;;;;;26.75;16.05;;;4.40;99.90;;;;;;5081127;28;20027;-91
2023/11/17 04:57:15;;;;;;;35.03;19.50;;;4.40;99.90;;;;;;5079459;28;20028;-91
2023/11/17 04:59:42;;;;;;;29.85;18.33;;;4.40;99.90;;;;;;5080939;28;20512;-91
2023/11/17 05:02:07;;;;;;;25.92;17.27;;;4.40;99.90;;;;;;5071460;28;20049;-91
2023/11/17 05:04:33;;;;;;;30.17;15.93;;;4.40;99.90;;;;;;5056899;28;20029;-91
2023/11/17 05:06:58;;;;;;;44.83;16.45;;;4.40;99.90;;;;;;5057282;28;20027;-91
2023/11/17 05:09:24;;;;;;;20.95;12.65;;;4.40;99.90;;;;;;5056554;28;20043;-92
2023/11/17 05:11:50;;;;;;;19.08;13.75;;;4.40;99.90;;;;;;5057480;28;20036;-90
2023/11/17 05:14:16;;;;;;;26.10;15.68;;;4.40;99.90;;;;;;5057468;28;20025;-91
2023/11/17 05:16:42;;;;;;;30.58;16.25;;;4.40;99.90;;;;;;5055646;28;20071;-92
2023/11/17 05:19:08;;;;;;;23.38;14.95;;;4.40;99.90;;;;;;5044426;28;20029;-91
2023/11/17 05:21:34;;;;;;;25.02;15.85;;;4.40;99.90;;;;;;5056939;28;20116;-91
2023/11/17 05:24:02;;;;;;;38.63;19.20;;;4.40;99.90;;;;;;5057343;28;20044;-91
2023/11/17 05:26:27;;;;;;;31.80;18.05;;;4.40;99.90;;;;;;5056312;28;20063;-91
2023/11/17 05:28:53;;;;;;;27.27;17.25;;;4.40;99.90;;;;;;5057044;28;20570;-91
2023/11/17 05:31:20;;;;;;;36.42;20.10;;;4.40;99.90;;;;;;5055876;28;20116;-90
2023/11/17 05:33:46;;;;;;;34.25;20.08;;;4.40;99.90;;;;;;5054706;28;20021;-91
2023/11/17 05:36:12;;;;;;;30.45;18.40;;;4.50;99.90;;;;;;5055407;28;20032;-90
2023/11/17 05:38:38;;;;;;;38.00;19.52;;;4.40;99.90;;;;;;5055775;28;20039;-91
2023/11/17 05:41:05;;;;;;;37.85;19.02;;;4.50;99.90;;;;;;5054801;28;20029;-92
2023/11/17 05:43:30;;;;;;;33.22;20.05;;;4.50;99.90;;;;;;5054650;28;20448;-91
2023/11/17 05:45:59;;;;;;;32.90;19.80;;;4.50;99.90;;;;;;5055244;28;20021;-92
2023/11/17 05:48:25;;;;;;;33.33;18.90;;;4.50;99.90;;;;;;5056656;28;20103;-91
2023/11/17 05:50:50;;;;;;;36.67;20.45;;;4.60;99.90;;;;;;5057545;28;20417;-92
2023/11/17 05:53:16;;;;;;;32.28;19.77;;;4.60;99.90;;;;;;5056776;28;20025;-93
2023/11/17 05:55:42;;;;;;;33.08;19.98;;;4.50;99.90;;;;;;5054867;28;20430;-89
2023/11/17 05:58:07;;;;;;;34.10;20.23;;;4.50;99.90;;;;;;5051745;28;20040;-90
2023/11/17 06:00:33;;;;;;;31.55;19.17;;;4.50;99.90;;;;;;5055254;28;20028;-90
2023/11/17 06:02:59;;;;;;;32.78;19.13;;;4.50;99.90;;;;;;5069293;28;20044;-91
2023/11/17 06:05:25;;;;;;;31.80;20.48;;;4.50;99.90;;;;;;5076322;28;20021;-90
2023/11/17 06:07:51;;;;;;;33.58;20.35;;;4.60;99.90;;;;;;5076437;28;20047;-90
2023/11/17 06:10:16;;;;;;;36.63;19.95;;;4.60;99.90;;;;;;5076514;28;20021;-89
2023/11/17 06:12:42;;;;;;;32.90;20.38;;;4.60;99.90;;;;;;5075646;28;20032;-90
2023/11/17 06:15:10;;;;;;;32.72;20.15;;;4.60;99.90;;;;;;5075389;28;20427;-90
2023/11/17 06:17:35;;;;;;;38.35;20.48;;;4.60;99.90;;;;;;5075525;28;20034;-90
2023/11/17 06:20:03;;;;;;;31.90;19.60;;;4.60;99.90;;;;;;5076516;28;20208;-91
2023/11/17 06:22:29;;;;;;;35.33;20.23;;;4.60;99.90;;;;;;5092236;28;20082;-91
2023/11/17 06:24:54;;;;;;;30.92;18.63;;;4.60;99.90;;;;;;5076256;28;20033;-90
2023/11/17 06:27:21;;;;;;;38.63;22.40;;;4.60;99.90;;;;;;5076351;28;20111;-91
2023/11/17 06:29:46;;;;;;;30.95;19.60;;;4.60;99.90;;;;;;5075250;28;20025;-91
2023/11/17 06:32:12;;;;;;;35.88;19.98;;;4.60;99.90;;;;;;5069346;28;20476;-90
2023/11/17 06:34:38;;;;;;;33.10;20.42;;;4.60;99.90;;;;;;5075039;28;20051;-90
2023/11/17 06:37:06;;;;;;;34.75;19.85;;;4.60;99.90;;;;;;5075007;28;20062;-90
2023/11/17 06:39:32;;;;;;;30.75;19.05;;;4.60;99.90;;;;;;5070971;28;20047;-90
2023/11/17 06:41:57;;;;;;;34.78;20.42;;;4.70;99.90;;;;;;5068375;28;20032;-90
2023/11/17 06:44:23;;;;;;;32.35;19.15;;;4.60;99.90;;;;;;5076662;28;20084;-90
2023/11/17 06:46:50;;;;;;;37.47;20.75;;;4.70;99.90;;;;;;5075465;28;20116;-90
2023/11/17 06:49:18;;;;;;;35.55;21.08;;;4.60;99.90;;;;;;5074848;28;20028;-90
2023/11/17 06:51:48;;;;;;;35.33;20.40;;;4.60;99.90;;;;;;5067464;28;20135;-90
2023/11/17 06:54:15;;;;;;;34.92;21.52;;;4.70;99.90;;;;;;5090206;28;20134;-90
2023/11/17 06:56:44;;;;;;;34.50;20.48;;;4.70;99.90;;;;;;5071043;28;20111;-93
2023/11/17 06:59:11;;;;;;;36.03;21.67;;;4.70;99.90;;;;;;5069820;28;20495;-92
2023/11/17 07:01:37;;;;;;;35.20;21.05;;;4.60;99.90;;;;;;5060470;28;20495;-90
2023/11/17 07:04:05;;;;;;;33.67;21.60;;;4.70;99.90;;;;;;5071343;28;20028;-91
2023/11/17 07:06:31;;;;;;;41.90;21.42;;;4.60;99.90;;;;;;5070186;28;20032;-91
2023/11/17 07:08:57;;;;;;;44.20;21.42;;;4.60;99.90;;;;;;5072576;28;20492;-91
2023/11/17 07:11:24;;;;;;;32.72;19.35;;;4.60;99.90;;;;;;5072916;28;20020;-91
2023/11/17 07:13:52;;;;;;;37.90;21.52;;;4.60;99.90;;;;;;5071488;28;20040;-91
2023/11/17 07:16:20;;;;;;;32.90;19.70;;;4.60;99.90;;;;;;5073056;28;20031;-90
2023/11/17 07:18:49;;;;;;;40.63;21.38;;;4.70;99.90;;;;;;5068458;28;20029;-91
2023/11/17 07:21:15;;;;;;;65.55;21.75;;;4.70;99.90;;;;;;5061712;28;20021;-93
2023/11/17 07:23:43;;;;;;;30.20;17.92;;;4.60;99.90;;;;;;5089605;28;20444;-91
2023/11/17 07:26:17;;;;;;;37.55;20.55;;;4.60;99.90;;;;;;5073037;28;20024;-91
2023/11/17 07:28:50;;;;;;;35.33;19.67;;;4.60;99.90;;;;;;5069095;28;20047;-91
2023/11/17 07:31:18;;;;;;;33.92;18.95;;;4.60;99.90;;;;;;5072847;28;20025;-91
2023/11/17 07:33:44;;;;;;;35.33;20.10;;;4.60;99.90;;;;;;5069130;28;20032;-91
2023/11/17 07:36:10;;;;;;;31.90;20.48;;;4.60;99.90;;;;;;5072668;28;20074;-92
2023/11/17 07:38:39;;;;;;;62.78;21.67;;;4.60;99.90;;;;;;5069033;28;20029;-91
2023/11/17 07:41:05;;;;;;;33.83;19.48;;;4.60;99.90;;;;;;5072445;28;20025;-91
2023/11/17 07:43:31;;;;;;;35.13;19.33;;;4.60;99.90;;;;;;5072494;28;20051;-91
2023/11/17 07:45:57;;;;;;;36.03;20.92;;;4.60;99.90;;;;;;5072561;28;20028;-92
2023/11/17 07:48:23;;;;;;;35.75;21.38;;;4.60;99.90;;;;;;5072086;28;20032;-91
2023/11/17 07:50:51;;;;;;;37.08;22.23;;;4.60;99.90;;;;;;5071692;28;20426;-92
2023/11/17 07:53:18;;;;;;;39.65;22.20;;;4.60;99.90;;;;;;5071930;28;20049;-93
2023/11/17 07:55:43;;;;;;;37.90;22.15;;;4.70;99.90;;;;;;5071477;28;20048;-92
2023/11/17 07:58:09;;;;;;;40.40;20.35;;;4.80;99.90;;;;;;5072124;28;20028;-91
2023/11/17 08:00:35;;;;;;;37.50;20.80;;;4.80;99.90;;;;;;5070459;28;20628;-91
2023/11/17 08:03:00;;;;;;;34.85;21.02;;;4.80;99.90;;;;;;5070997;28;20078;-92
2023/11/17 08:05:26;;;;;;;35.20;20.23;;;4.80;99.90;;;;;;5071147;28;20482;-91
2023/11/17 08:07:53;;;;;;;35.80;21.13;;;4.80;99.90;;;;;;5072603;28;20123;-91
2023/11/17 08:10:20;;;;;;;39.30;21.95;;;4.80;99.90;;;;;;5071123;28;20395;-91
2023/11/17 08:12:46;;;;;;;42.13;21.77;;;4.80;99.90;;;;;;5071958;28;20048;-92
2023/11/17 08:15:13;;;;;;;45.22;25.20;;;4.90;99.90;;;;;;5071675;28;20025;-92
2023/11/17 08:17:38;;;;;;;41.45;23.88;;;5.00;99.90;;;;;;5072324;28;20046;-92
2023/11/17 08:20:10;;;;;;;39.03;23.27;;;4.90;99.90;;;;;;5072176;28;20035;-92
2023/11/17 08:22:37;;;;;;;36.30;22.90;;;4.90;99.90;;;;;;5071470;28;20024;-91
2023/11/17 08:25:03;;;;;;;40.95;25.80;;;4.90;99.90;;;;;;5073020;28;20484;-91
2023/11/17 08:27:28;;;;;;;42.20;25.63;;;4.90;99.90;;;;;;5072157;28;20083;-92
2023/11/17 08:29:54;;;;;;;44.58;26.02;;;5.00;99.90;;;;;;5073044;28;20017;-91
2023/11/17 08:32:20;;;;;;;48.10;25.92;;;4.90;99.90;;;;;;5071971;28;20031;-91
2023/11/17 08:34:46;;;;;;;43.97;26.98;;;5.00;99.90;;;;;;5071572;28;20170;-91
2023/11/17 08:37:12;;;;;;;47.13;27.63;;;5.00;99.90;;;;;;5068644;28;20032;-92
2023/11/17 08:39:38;;;;;;;44.75;26.98;;;5.00;99.90;;;;;;5071632;28;20028;-91
2023/11/17 08:42:04;;;;;;;48.80;29.05;;;5.00;99.90;;;;;;5071448;28;20027;-91
2023/11/17 08:44:29;;;;;;;51.53;28.55;;;5.00;99.90;;;;;;5070953;28;20389;-91
2023/11/17 08:46:55;;;;;;;48.80;28.60;;;5.00;99.90;;;;;;5071687;28;20031;-91
2023/11/17 08:49:20;;;;;;;47.88;28.08;;;5.00;99.90;;;;;;5070608;28;20039;-91
2023/11/17 08:51:47;;;;;;;50.80;27.10;;;5.00;99.90;;;;;;5070136;28;20139;-92
2023/11/17 08:54:14;;;;;;;48.90;28.67;;;5.10;99.90;;;;;;5070327;28;20037;-93
2023/11/17 08:56:40;;;;;;;51.65;29.88;;;5.10;99.90;;;;;;5071095;28;20062;-92
2023/11/17 08:59:05;;;;;;;52.70;30.45;;;5.10;99.90;;;;;;5071966;28;20020;-92
2023/11/17 09:01:32;;;;;;;57.70;32.10;;;5.10;99.90;;;;;;5069769;28;20029;-92
2023/11/17 09:03:58;;;;;;;55.67;31.80;;;5.30;99.90;;;;;;5074492;28;20085;-93
2023/11/17 09:06:24;;;;;;;61.47;35.05;;;5.30;99.90;;;;;;5087218;28;20430;-93
2023/11/17 09:08:49;;;;;;;55.38;32.85;;;5.30;99.90;;;;;;5074219;28;20039;-92
2023/11/17 09:11:15;;;;;;;63.80;36.08;;;5.40;99.90;;;;;;5074678;28;20016;-92
2023/11/17 09:13:40;;;;;;;64.28;35.60;;;5.50;99.90;;;;;;5074530;28;20081;-92
2023/11/17 09:16:07;;;;;;;57.63;35.25;;;5.50;99.90;;;;;;5092827;28;20059;-92
2023/11/17 09:18:35;;;;;;;63.72;33.65;;;5.60;99.90;;;;;;5074188;28;20541;-93
2023/11/17 09:21:05;;;;;;;60.38;35.67;;;5.60;99.90;;;;;;5054642;28;20090;-93
2023/11/17 09:23:34;;;;;;;74.78;40.85;;;5.70;99.90;;;;;;5054430;28;20024;-92
2023/11/17 09:26:03;;;;;;;73.43;40.92;;;5.80;99.90;;;;;;5055135;28;20362;-93
2023/11/17 09:28:29;;;;;;;83.75;43.08;;;5.80;99.90;;;;;;5070350;28;20036;-92
2023/11/17 09:30:56;;;;;;;68.28;41.20;;;5.90;99.90;;;;;;5077351;28;20054;-92
2023/11/17 09:33:22;;;;;;;75.85;42.47;;;6.00;99.90;;;;;;5078440;28;20103;-92
2023/11/17 09:35:48;;;;;;;70.43;41.90;;;6.10;99.90;;;;;;5078101;28;20028;-92
2023/11/17 09:38:16;;;;;;;70.15;40.53;;;6.30;99.90;;;;;;5078563;28;20028;-92
2023/11/17 09:40:42;;;;;;;75.30;43.47;;;6.40;99.90;;;;;;5077939;28;20026;-92
2023/11/17 09:43:23;;;;;;;74.75;42.70;;;6.50;99.90;;;;;;5077886;28;20028;-91
2023/11/17 09:45:52;;;;;;;70.30;40.90;;;6.60;99.90;;;;;;5095979;28;20439;-91
2023/11/17 09:48:18;;;;;;;74.57;43.45;;;6.80;99.90;;;;;;5094719;28;20050;-92
2023/11/17 09:50:45;;;;;;;73.88;41.33;;;6.80;99.90;;;;;;5094550;28;20044;-92
2023/11/17 09:53:15;;;;;;;66.85;40.30;;;6.90;99.90;;;;;;5077804;28;20020;-91
2023/11/17 09:55:42;;;;;;;73.70;40.72;;;7.00;99.90;;;;;;5077370;28;20031;-92
2023/11/17 09:58:15;;;;;;;76.28;42.72;;;7.10;99.90;;;;;;5077412;28;20077;-92
2023/11/17 10:00:43;;;;;;;67.43;39.53;;;7.30;99.90;;;;;;5078079;28;20016;-92
2023/11/17 10:03:10;;;;;;;62.58;38.90;;;7.40;99.90;;;;;;5071825;28;20080;-91
2023/11/17 10:05:38;;;;;;;66.18;39.25;;;7.50;99.90;;;;;;5074332;28;20058;-92
2023/11/17 10:08:07;;;;;;;68.20;38.25;;;7.60;99.90;;;;;;5073886;28;20037;-91
2023/11/17 10:10:38;;;;;;;61.08;37.03;;;7.80;99.90;;;;;;5073815;28;20036;-89
2023/11/17 10:13:11;;;;;;;60.55;34.75;;;7.80;99.90;;;;;;5074451;28;20499;-92
2023/11/17 10:15:44;;;;;;;55.22;34.03;;;7.90;99.90;;;;;;5073904;28;20028;-91
2023/11/17 10:18:14;;;;;;;58.50;32.20;;;7.90;99.90;;;;;;5059382;28;20032;-91
2023/11/17 10:20:41;;;;;;;55.67;34.55;;;7.90;99.90;;;;;;5073524;28;20039;-91
2023/11/17 10:23:07;;;;;;;55.53;33.20;;;7.90;99.90;;;;;;5073039;28;20029;-91
2023/11/17 10:25:34;;;;;;;58.65;34.58;;;7.90;99.90;;;;;;5073286;28;20029;-90
2023/11/17 10:28:04;;;;;;;58.08;34.25;;;8.00;99.90;;;;;;5072652;28;20041;-91
2023/11/17 10:30:34;;;;;;;53.70;31.23;;;8.00;99.90;;;;;;5073501;28;20024;-91
2023/11/17 10:33:30;;;;;;;44.47;27.17;;;8.00;99.90;;;;;;5073942;28;20028;-90
2023/11/17 10:36:12;;;;;;;41.35;25.70;;;8.00;99.90;;;;;;5072771;28;20389;-90
2023/11/17 10:38:42;;;;;;;38.97;24.42;;;8.00;99.90;;;;;;5072146;28;20052;-89
2023/11/17 10:41:33;;;;;;;37.63;24.75;;;8.10;99.90;;;;;;5070321;28;20516;-90
2023/11/17 10:44:04;;;;;;;39.78;23.35;;;8.20;99.90;;;;;;5068073;28;20165;-91
2023/11/17 10:46:44;;;;;;;37.58;23.35;;;8.30;99.90;;;;;;5086371;28;20021;-90
2023/11/17 10:49:19;;;;;;;36.83;24.15;;;8.30;99.90;;;;;;5074062;28;20032;-90
2023/11/17 10:51:49;;;;;;;31.30;21.98;;;8.40;99.90;;;;;;5072880;28;20012;-90
2023/11/17 10:54:16;;;;;;;33.88;21.73;;;8.40;99.90;;;;;;5072202;28;20033;-90
2023/11/17 10:56:53;;;;;;;33.25;20.83;;;8.40;99.90;;;;;;5077341;28;20077;-91
2023/11/17 10:59:21;;;;;;;26.48;18.48;;;8.40;99.90;;;;;;5072530;28;20459;-90
2023/11/17 11:01:48;;;;;;;29.50;18.52;;;8.20;99.90;;;;;;5074977;28;20450;-90
2023/11/17 11:04:15;;;;;;;29.20;19.30;;;8.20;99.90;;;;;;5073998;28;20099;-89
2023/11/17 11:06:42;;;;;;;32.03;18.70;;;8.10;99.90;;;;;;5093308;28;20111;-90
2023/11/17 11:09:09;;;;;;;27.92;17.52;;;8.10;99.90;;;;;;5093558;28;20035;-90
2023/11/17 11:11:35;;;;;;;27.73;17.95;;;8.10;99.90;;;;;;5077163;28;20035;-89
2023/11/17 11:14:02;;;;;;;29.35;16.98;;;8.00;99.90;;;;;;5074998;28;20050;-90
2023/11/17 11:16:32;;;;;;;28.35;17.70;;;7.90;99.90;;;;;;5075690;28;20024;-89
2023/11/17 11:18:59;;;;;;;30.42;18.55;;;7.90;99.90;;;;;;5075788;28;20035;-90
2023/11/17 11:21:35;;;;;;;25.20;16.38;;;7.80;99.90;;;;;;5074818;28;20103;-90
2023/11/17 11:24:04;;;;;;;28.50;17.77;;;7.80;99.90;;;;;;5075409;28;20032;-89
2023/11/17 11:26:32;;;;;;;30.75;18.92;;;7.80;99.90;;;;;;5093923;28;20016;-89
2023/11/17 11:28:58;;;;;;;27.42;18.90;;;7.80;99.90;;;;;;5076242;28;20036;-89
2023/11/17 11:31:25;;;;;;;30.77;19.80;;;7.80;99.90;;;;;;5093671;28;20028;-89
2023/11/17 11:33:51;;;;;;;26.33;18.20;;;7.90;99.90;;;;;;5075857;28;20035;-90
2023/11/17 11:36:18;;;;;;;30.67;19.77;;;7.90;99.90;;;;;;5075832;28;20030;-90
2023/11/17 11:38:47;;;;;;;28.33;19.25;;;8.00;99.90;;;;;;5075866;28;20115;-90
2023/11/17 11:41:15;;;;;;;26.30;18.48;;;8.10;99.90;;;;;;5075733;28;20077;-89
2023/11/17 11:43:49;;;;;;;31.52;18.60;;;8.20;99.90;;;;;;5075628;28;20024;-89
2023/11/17 11:46:16;;;;;;;30.67;17.80;;;8.30;99.90;;;;;;5093831;28;20031;-90
2023/11/17 11:48:51;;;;;;;28.73;17.55;;;8.40;99.90;;;;;;5075625;28;20032;-89
2023/11/17 11:51:18;;;;;;;27.65;17.17;;;8.40;99.90;;;;;;5076237;28;20107;-89
2023/11/17 11:53:58;;;;;;;25.23;17.05;;;8.40;99.90;;;;;;5075077;28;20476;-89
2023/11/17 11:56:33;;;;;;;26.17;16.67;;;8.50;99.90;;;;;;5092221;28;20430;-89
2023/11/17 11:58:59;;;;;;;26.10;16.50;;;8.60;99.90;;;;;;5075407;28;20024;-90
2023/11/17 12:01:32;;;;;;;22.17;16.23;;;8.70;99.90;;;;;;5091104;28;20511;-88
2023/11/17 12:04:07;;;;;;;;;;;8.70;99.90;;;;;;5092493;28;20039;-90
2023/11/17 12:06:34;;;;;;;25.50;15.43;;;8.80;99.90;;;;;;5071676;28;19908;-89
2023/11/17 12:09:07;;;;;;;22.55;14.63;;;8.80;99.90;;;;;;5074858;28;20036;-90
2023/11/17 12:11:46;;;;;;;24.35;15.45;;;8.90;99.90;;;;;;5074324;28;20029;-90
2023/11/17 12:14:15;;;;;;;20.92;13.15;;;9.00;99.90;;;;;;5071441;28;20027;-89
2023/11/17 12:16:54;;;;;;;23.13;14.32;;;9.00;99.90;;;;;;5071442;28;20496;-90
2023/11/17 12:19:22;;;;;;;17.40;12.25;;;9.10;99.90;;;;;;5074729;28;20035;-90
2023/11/17 12:21:50;;;;;;;19.38;12.13;;;9.10;99.90;;;;;;5091439;28;20016;-89
2023/11/17 12:24:23;;;;;;;19.90;12.63;;;9.20;99.90;;;;;;5092384;28;20035;-90
2023/11/17 12:26:52;;;;;;;18.50;11.98;;;9.20;99.90;;;;;;5092844;28;20054;-90
2023/11/17 12:29:32;;;;;;;17.00;11.27;;;9.40;99.90;;;;;;5071148;28;20047;-90
2023/11/17 12:32:05;;;;;;;17.92;11.27;;;9.40;99.90;;;;;;5062593;28;20020;-90
2023/11/17 12:34:31;;;;;;;16.00;10.32;;;9.40;99.90;;;;;;5081195;28;20099;-90
2023/11/17 12:37:00;;;;;;;13.80;10.23;;;9.50;99.90;;;;;;5074832;28;20123;-89
2023/11/17 12:39:40;;;;;;;15.43;9.75;;;9.50;99.90;;;;;;5074160;28;20038;-90
2023/11/17 12:42:15;;;;;;;12.98;9.68;;;9.60;99.90;;;;;;5075012;28;20021;-90